This is the latest recevied weather packets stored in our database for station/object PY5TG-13. If no packets are shown the sender has not sent any weather packets the latest 10 day(s).
| Time | Temp. | Humidity | Pressure | Rain* | Wind** | Luminosity | Snow |
|---|---|---|---|---|---|---|---|
| 1777659006 | 24.44° C | 70% | 1014.2 hPa | 0 mm | - | 180 W/m² | - |
| 1777658407 | 24.44° C | 70% | 1014.1 hPa | 0 mm | - | 245 W/m² | - |
| 1777657808 | 23.89° C | 70% | 1014.4 hPa | 0 mm | - | 260 W/m² | - |
| 1777657208 | 23.89° C | 71% | 1014.6 hPa | 0 mm | - | 215 W/m² | - |
| 1777656606 | 24.44° C | 69% | 1014.5 hPa | 0 mm | - | 258 W/m² | - |
| 1777656007 | 23.89° C | 72% | 1015 hPa | 0 mm | - | 301 W/m² | - |
| 1777655466 | 23.33° C | 72% | 1015.1 hPa | 0 mm | - | 323 W/m² | - |
| 1777655402 | 23.89° C | 72% | 1015.2 hPa | 0 mm | - | 320 W/m² | - |
| 1777654208 | 23.89° C | 73% | 1015.3 hPa | 0 mm | - | 342 W/m² | - |
| 1777653066 | 23.89° C | 74% | 1015.5 hPa | 0 mm | - | 342 W/m² | - |
| 1777653002 | 23.33° C | 73% | 1015.6 hPa | 0 mm | - | 340 W/m² | - |
| 1777652406 | 22.78° C | 73% | 1015.9 hPa | 0 mm | - | 355 W/m² | - |
| 1777651806 | 23.33° C | 74% | 1015.8 hPa | 0 mm | - | 366 W/m² | - |
| 1777651202 | 22.78° C | 75% | 1016.3 hPa | 0 mm | - | 361 W/m² | - |
| 1777650006 | 21.67° C | 75% | 1016.8 hPa | 0 mm | - | 374 W/m² | - |
| 1777649466 | 22.78° C | 74% | 1016.8 hPa | 0 mm | - | 386 W/m² | - |
| 1777648806 | 22.78° C | 73% | 1017 hPa | 0 mm | - | 391 W/m² | - |
| 1777648206 | 22.78° C | 72% | 1017.1 hPa | 0 mm | - | 384 W/m² | - |
| 1777647666 | 22.22° C | 76% | 1017.6 hPa | 0 mm | - | 290 W/m² | - |
| 1777647006 | 22.22° C | 75% | 1017.5 hPa | 0 mm | - | 368 W/m² | - |
| 1777646406 | 21.67° C | 73% | 1017.8 hPa | 0 mm | - | 382 W/m² | - |
| 1777645866 | 22.22° C | 73% | 1017.7 hPa | 0 mm | - | 288 W/m² | - |
| 1777645747 | 22.22° C | 73% | 1017.7 hPa | 0 mm | - | 317 W/m² | - |
| 1777645207 | 21.67° C | 75% | 1018 hPa | 0 mm | - | 341 W/m² | - |
| 1777644666 | 21.67° C | 74% | 1018.2 hPa | 0 mm | - | 362 W/m² | - |
* Rain latest hour (hover to see other rain measurements)
** Current wind speed in m/s (hover to see current wind gust speed)